createdAt,value
2022-09-15T00:00:49.773Z,7.20
2022-09-15T00:03:16.835Z,8.20
2022-09-15T00:05:44.469Z,6.00
2022-09-15T00:08:13.036Z,11.10
2022-09-15T00:10:48.260Z,7.00
2022-09-15T00:13:15.620Z,9.10
2022-09-15T00:15:42.606Z,6.60
2022-09-15T00:18:09.610Z,7.80
2022-09-15T00:20:40.638Z,11.30
2022-09-15T00:23:07.485Z,10.80
2022-09-15T00:25:34.518Z,8.50
2022-09-15T00:28:01.486Z,9.00
2022-09-15T00:30:28.457Z,8.80
2022-09-15T00:32:55.388Z,10.30
2022-09-15T00:35:22.250Z,9.00
2022-09-15T00:37:48.848Z,9.80
2022-09-15T00:40:16.078Z,11.50
2022-09-15T00:42:42.856Z,10.60
2022-09-15T00:45:15.875Z,12.00
2022-09-15T00:47:43.285Z,10.10
2022-09-15T00:50:14.591Z,10.60
2022-09-15T00:52:47.421Z,9.60
2022-09-15T00:55:22.406Z,11.10
2022-09-15T00:57:52.807Z,12.40
2022-09-15T01:00:22.427Z,11.80
2022-09-15T01:02:50.351Z,11.20
2022-09-15T01:05:19.773Z,17.10
2022-09-15T01:07:53.421Z,10.70
2022-09-15T01:10:30.374Z,9.70
2022-09-15T01:12:59.651Z,12.30
2022-09-15T01:15:34.764Z,11.90
2022-09-15T01:18:10.337Z,12.40
2022-09-15T01:20:46.032Z,11.30
2022-09-15T01:23:27.212Z,10.80
2022-09-15T01:26:51.252Z,9.80
2022-09-15T01:29:43.747Z,12.00
2022-09-15T01:32:39.924Z,12.10
2022-09-15T01:35:15.734Z,13.00
2022-09-15T01:37:49.255Z,13.40
2022-09-15T01:40:18.736Z,9.20
2022-09-15T01:42:47.700Z,12.40
2022-09-15T01:45:26.345Z,14.70
2022-09-15T01:47:55.335Z,10.90
2022-09-15T01:50:26.594Z,13.90
2022-09-15T01:52:57.488Z,12.70
2022-09-15T01:55:31.046Z,12.10
2022-09-15T01:57:59.030Z,13.00
2022-09-15T02:00:25.805Z,13.10
2022-09-15T02:03:01.373Z,12.70
2022-09-15T02:05:34.307Z,9.90
2022-09-15T02:08:06.889Z,14.90
2022-09-15T02:10:53.701Z,12.60
2022-09-15T02:13:48.658Z,11.30
2022-09-15T02:16:22.159Z,11.30
2022-09-15T02:18:54.928Z,12.00
2022-09-15T02:21:29.648Z,14.50
2022-09-15T02:24:03.895Z,14.20
2022-09-15T02:26:34.083Z,11.30
2022-09-15T02:29:05.214Z,11.40
2022-09-15T02:31:35.062Z,13.20
2022-09-15T02:34:07.712Z,11.60
2022-09-15T02:36:34.904Z,12.70
2022-09-15T02:39:07.458Z,12.50
2022-09-15T02:41:36.682Z,12.90
2022-09-15T02:44:03.762Z,12.00
2022-09-15T02:46:30.809Z,13.90
2022-09-15T02:48:57.510Z,11.50
2022-09-15T02:51:24.302Z,11.30
2022-09-15T02:53:51.131Z,12.90
2022-09-15T02:56:18.221Z,14.40
2022-09-15T02:58:44.953Z,15.50
2022-09-15T03:01:17.352Z,14.30
2022-09-15T03:03:45.959Z,13.20
2022-09-15T03:06:17.217Z,14.10
2022-09-15T03:08:53.315Z,14.50
2022-09-15T03:11:22.992Z,11.70
2022-09-15T03:13:54.241Z,12.70
2022-09-15T03:16:21.513Z,14.70
2022-09-15T03:18:48.505Z,15.00
2022-09-15T03:21:18.761Z,12.30
2022-09-15T03:23:46.033Z,12.90
2022-09-15T03:26:12.947Z,12.90
2022-09-15T03:28:40.155Z,15.30
2022-09-15T03:31:08.896Z,15.00
2022-09-15T03:33:36.109Z,16.00
2022-09-15T03:36:07.031Z,14.90
2022-09-15T03:38:34.076Z,18.70
2022-09-15T03:41:09.780Z,14.90
2022-09-15T03:43:37.289Z,19.50
2022-09-15T03:46:08.310Z,17.40
2022-09-15T03:48:36.368Z,19.90
2022-09-15T03:51:06.635Z,16.20
2022-09-15T03:53:39.016Z,17.10
2022-09-15T03:56:14.297Z,16.10
2022-09-15T03:58:41.094Z,16.90
2022-09-15T04:01:08.371Z,16.20
2022-09-15T04:03:40.236Z,15.90
2022-09-15T04:06:10.261Z,16.70
2022-09-15T04:08:37.224Z,16.40
2022-09-15T04:11:07.584Z,17.80
2022-09-15T04:13:35.460Z,17.50
2022-09-15T04:16:06.238Z,17.40
2022-09-15T04:18:33.243Z,17.50
2022-09-15T04:21:01.583Z,19.80
2022-09-15T04:23:28.661Z,17.80
2022-09-15T04:26:01.084Z,18.60
2022-09-15T04:28:29.216Z,19.50
2022-09-15T04:31:06.489Z,16.70
2022-09-15T04:33:33.862Z,18.10
2022-09-15T04:36:08.734Z,15.40
2022-09-15T04:38:35.936Z,19.70
2022-09-15T04:41:06.139Z,16.40
2022-09-15T04:43:34.047Z,16.20
2022-09-15T04:46:01.322Z,16.40
2022-09-15T04:48:28.612Z,17.00
2022-09-15T04:51:00.261Z,17.10
2022-09-15T04:53:27.348Z,17.60
2022-09-15T04:56:00.930Z,15.40
2022-09-15T04:58:27.926Z,14.80
2022-09-15T05:00:55.035Z,13.00
2022-09-15T05:03:21.925Z,16.80
2022-09-15T05:05:48.852Z,15.30
2022-09-15T05:08:15.848Z,13.90
2022-09-15T05:10:42.877Z,13.20
2022-09-15T05:13:09.718Z,12.30
2022-09-15T05:15:36.570Z,11.60
2022-09-15T05:18:03.572Z,10.30
2022-09-15T05:20:30.661Z,11.10
2022-09-15T05:22:57.392Z,8.70
2022-09-15T05:25:24.978Z,13.90
2022-09-15T05:27:51.944Z,12.40
2022-09-15T05:30:46.361Z,9.70
2022-09-15T05:33:05.660Z,10.90
2022-09-15T05:35:32.735Z,10.30
2022-09-15T05:37:59.514Z,9.30
2022-09-15T05:40:26.383Z,12.10
2022-09-15T05:42:53.198Z,10.40
2022-09-15T05:45:20.441Z,7.90
2022-09-15T05:47:47.389Z,22.00
2022-09-15T05:50:14.707Z,11.40
2022-09-15T05:52:41.474Z,14.60
2022-09-15T05:55:09.149Z,8.00
2022-09-15T05:57:35.986Z,9.60
2022-09-15T06:00:04.432Z,7.20
2022-09-15T06:02:31.508Z,9.50
2022-09-15T06:04:58.321Z,6.80
2022-09-15T06:07:25.381Z,7.30
2022-09-15T06:09:52.374Z,7.80
2022-09-15T06:12:19.439Z,10.20
2022-09-15T06:14:50.322Z,8.30
2022-09-15T06:17:17.543Z,8.80
2022-09-15T06:19:44.337Z,7.50
2022-09-15T06:22:11.328Z,10.20
2022-09-15T06:24:38.397Z,9.00
2022-09-15T06:27:05.399Z,8.10
2022-09-15T06:29:32.470Z,8.10
2022-09-15T06:32:02.908Z,8.10
2022-09-15T06:34:29.807Z,7.80
2022-09-15T06:36:56.815Z,10.20
2022-09-15T06:39:23.653Z,8.10
2022-09-15T06:42:02.501Z,7.20
2022-09-15T06:44:30.152Z,9.90
2022-09-15T06:46:56.983Z,6.40
2022-09-15T06:49:24.060Z,9.10
2022-09-15T06:51:50.855Z,8.90
2022-09-15T06:54:18.008Z,5.70
2022-09-15T06:56:44.985Z,7.10
2022-09-15T06:59:12.663Z,7.90
2022-09-15T07:01:39.735Z,8.10
2022-09-15T07:04:09.839Z,5.60
2022-09-15T07:06:38.386Z,7.00
2022-09-15T07:09:06.162Z,7.50
2022-09-15T07:11:33.244Z,5.90
2022-09-15T07:14:00.213Z,6.10
2022-09-15T07:16:27.229Z,6.70
2022-09-15T07:19:00.425Z,9.30
2022-09-15T07:21:27.647Z,7.40
2022-09-15T07:23:57.135Z,7.60
2022-09-15T07:26:25.997Z,5.10
2022-09-15T07:28:58.346Z,5.60
2022-09-15T07:31:27.242Z,6.80
2022-09-15T07:33:54.111Z,7.00
2022-09-15T07:36:21.544Z,7.70
2022-09-15T07:38:49.774Z,5.70
2022-09-15T07:41:18.926Z,6.20
2022-09-15T07:43:50.262Z,5.20
2022-09-15T07:46:18.166Z,6.60
2022-09-15T07:48:46.090Z,6.80
2022-09-15T07:51:13.694Z,7.10
2022-09-15T07:53:40.732Z,4.10
2022-09-15T07:56:08.293Z,7.90
2022-09-15T07:58:35.228Z,6.40
2022-09-15T08:01:06.757Z,5.50
2022-09-15T08:03:33.936Z,5.20
2022-09-15T08:06:05.907Z,8.20
2022-09-15T08:08:32.629Z,4.20
2022-09-15T08:10:59.462Z,5.20
2022-09-15T08:13:26.712Z,5.80
2022-09-15T08:15:53.747Z,6.60
2022-09-15T08:18:20.619Z,4.20
2022-09-15T08:20:47.562Z,5.00
2022-09-15T08:23:14.388Z,3.50
2022-09-15T08:25:41.239Z,3.60
2022-09-15T08:28:08.330Z,4.70
2022-09-15T08:30:35.964Z,2.20
2022-09-15T08:33:02.814Z,4.50
2022-09-15T08:35:31.322Z,6.50
2022-09-15T08:37:58.112Z,4.40
2022-09-15T08:40:32.675Z,3.50
2022-09-15T08:43:06.146Z,4.50
2022-09-15T08:45:46.123Z,6.90
2022-09-15T08:48:16.321Z,3.40
2022-09-15T08:50:47.676Z,3.80
2022-09-15T08:53:19.975Z,2.60
2022-09-15T08:55:55.128Z,3.60
2022-09-15T08:58:28.327Z,3.10
2022-09-15T09:01:36.288Z,7.20
2022-09-15T09:04:08.928Z,4.20
2022-09-15T09:06:54.162Z,3.70
2022-09-15T09:09:41.982Z,6.20
2022-09-15T09:12:30.118Z,5.80
2022-09-15T09:15:11.702Z,4.70
2022-09-15T09:17:52.222Z,3.20
2022-09-15T09:20:24.906Z,3.40
2022-09-15T09:22:54.233Z,5.80
2022-09-15T09:25:27.657Z,5.00
2022-09-15T09:27:58.093Z,4.60
2022-09-15T09:30:27.664Z,4.60
2022-09-15T09:33:00.252Z,3.40
2022-09-15T09:35:36.103Z,3.90
2022-09-15T09:38:02.967Z,3.30
2022-09-15T09:40:31.605Z,5.10
2022-09-15T09:42:59.578Z,5.20
2022-09-15T09:45:26.574Z,4.90
2022-09-15T09:47:58.350Z,3.30
2022-09-15T09:50:39.578Z,4.10
2022-09-15T09:53:33.864Z,2.80
2022-09-15T09:56:15.392Z,2.80
2022-09-15T09:58:42.191Z,5.80
2022-09-15T10:01:13.972Z,6.00
2022-09-15T10:03:41.881Z,4.20
2022-09-15T10:06:15.713Z,3.80
2022-09-15T10:09:00.086Z,4.10
2022-09-15T10:11:47.034Z,5.60
2022-09-15T10:14:29.248Z,3.20
2022-09-15T10:17:18.028Z,3.60
2022-09-15T10:19:51.036Z,4.90
2022-09-15T10:22:27.060Z,4.20
2022-09-15T10:24:54.325Z,4.80
2022-09-15T10:27:27.059Z,3.40
2022-09-15T10:29:54.619Z,5.50
2022-09-15T10:32:31.680Z,5.20
2022-09-15T10:35:19.306Z,5.60
2022-09-15T10:37:59.168Z,3.50
2022-09-15T10:40:40.546Z,3.20
2022-09-15T10:43:41.020Z,4.30
2022-09-15T10:46:23.934Z,6.40
2022-09-15T10:48:56.533Z,3.80
2022-09-15T10:51:33.409Z,3.80
2022-09-15T10:54:15.564Z,5.60
2022-09-15T10:56:46.188Z,5.80
2022-09-15T10:59:47.839Z,3.40
2022-09-15T11:02:33.728Z,3.60
2022-09-15T11:05:37.035Z,2.80
2022-09-15T11:08:22.718Z,4.90
2022-09-15T11:10:53.763Z,6.80
2022-09-15T11:13:44.495Z,3.10
2022-09-15T11:16:26.056Z,3.10
2022-09-15T11:18:55.265Z,4.50
2022-09-15T11:21:25.525Z,3.50
2022-09-15T11:24:13.655Z,2.60
2022-09-15T11:26:46.453Z,3.10
2022-09-15T11:29:23.383Z,4.60
2022-09-15T11:31:57.168Z,4.00
2022-09-15T11:34:30.375Z,4.60
2022-09-15T11:37:26.417Z,3.70
2022-09-15T11:40:01.922Z,6.00
2022-09-15T11:43:01.093Z,4.30
2022-09-15T11:45:35.068Z,5.00
2022-09-15T11:48:19.636Z,4.00
2022-09-15T11:50:50.122Z,4.20
2022-09-15T11:53:48.229Z,3.00
2022-09-15T11:56:36.527Z,3.50
2022-09-15T11:59:15.054Z,5.10
2022-09-15T12:01:50.285Z,5.00
2022-09-15T12:04:28.318Z,3.70
2022-09-15T12:07:14.537Z,4.80
2022-09-15T12:09:41.581Z,6.40
2022-09-15T12:12:14.419Z,6.00
2022-09-15T12:14:45.272Z,4.90
2022-09-15T12:17:24.970Z,4.70
2022-09-15T12:20:03.139Z,4.80
2022-09-15T12:22:40.940Z,3.90
2022-09-15T12:25:16.508Z,4.40
2022-09-15T12:27:43.307Z,2.40
2022-09-15T12:30:39.733Z,4.20
2022-09-15T12:33:44.185Z,3.90
2022-09-15T12:36:38.359Z,3.10
2022-09-15T12:39:36.494Z,4.20
2022-09-15T12:42:10.632Z,2.80
2022-09-15T12:44:40.651Z,4.00
2022-09-15T12:47:37.867Z,2.10
2022-09-15T12:50:16.569Z,2.60
2022-09-15T12:52:47.380Z,3.80
2022-09-15T12:55:27.184Z,2.80
2022-09-15T12:58:00.163Z,4.00
2022-09-15T13:00:32.986Z,3.00
2022-09-15T13:03:00.419Z,3.00
2022-09-15T13:05:47.316Z,2.10
2022-09-15T13:08:36.135Z,1.70
2022-09-15T13:11:09.837Z,2.00
2022-09-15T13:13:45.355Z,2.90
2022-09-15T13:16:27.244Z,4.60
2022-09-15T13:19:05.979Z,2.40
2022-09-15T13:21:35.744Z,3.00
2022-09-15T13:24:05.213Z,3.30
2022-09-15T13:26:32.258Z,2.80
2022-09-15T13:29:00.183Z,3.20
2022-09-15T13:31:50.237Z,7.40
2022-09-15T13:40:37.927Z,1.50
2022-09-15T13:43:07.299Z,1.80
2022-09-15T13:45:51.877Z,2.10
2022-09-15T13:48:46.220Z,2.10
2022-09-15T13:51:25.262Z,1.20
2022-09-15T13:54:01.351Z,2.00
2022-09-15T13:56:31.261Z,2.80
2022-09-15T13:59:08.036Z,3.50
2022-09-15T14:01:39.588Z,2.50
2022-09-15T14:04:14.586Z,3.60
2022-09-15T14:06:44.900Z,3.60
2022-09-15T14:09:37.377Z,1.20
2022-09-15T14:12:09.642Z,2.50
2022-09-15T14:14:53.718Z,1.90
2022-09-15T14:17:26.012Z,1.60
2022-09-15T14:19:57.999Z,2.80
2022-09-15T14:22:27.780Z,2.00
2022-09-15T14:24:56.499Z,3.50
2022-09-15T14:27:26.084Z,2.30
2022-09-15T14:29:55.306Z,2.40
2022-09-15T14:32:22.245Z,2.30
2022-09-15T14:34:49.397Z,2.90
2022-09-15T14:37:24.063Z,1.20
2022-09-15T14:39:53.954Z,4.40
2022-09-15T14:42:24.058Z,4.50
2022-09-15T14:47:39.178Z,1.70
2022-09-15T14:50:21.203Z,3.10
2022-09-15T14:52:52.900Z,2.80
2022-09-15T14:55:37.489Z,1.80
2022-09-15T14:58:20.605Z,2.80
2022-09-15T15:01:19.614Z,2.40
2022-09-15T15:03:49.607Z,1.30
2022-09-15T15:06:51.395Z,3.10
2022-09-15T15:09:26.833Z,4.10
2022-09-15T15:11:57.063Z,2.20
2022-09-15T15:14:23.926Z,3.30
2022-09-15T15:17:00.539Z,2.60
2022-09-15T15:19:37.053Z,2.50
2022-09-15T15:22:23.798Z,3.80
2022-09-15T15:24:53.159Z,3.00
2022-09-15T15:27:35.014Z,2.50
2022-09-15T15:30:32.264Z,2.70
2022-09-15T15:33:19.656Z,3.30
2022-09-15T15:35:47.358Z,2.30
2022-09-15T15:38:16.776Z,1.90
2022-09-15T15:40:44.810Z,1.70
2022-09-15T15:43:25.134Z,1.80
2022-09-15T15:46:06.000Z,3.30
2022-09-15T15:48:38.380Z,3.10
2022-09-15T15:51:09.324Z,2.10
2022-09-15T15:53:36.190Z,1.40
2022-09-15T15:56:06.706Z,2.20
2022-09-15T15:58:33.716Z,1.60
2022-09-15T16:01:00.596Z,1.50
2022-09-15T16:03:27.624Z,1.90
2022-09-15T16:06:00.037Z,1.80
2022-09-15T16:08:29.444Z,1.40
2022-09-15T16:10:57.591Z,2.60
2022-09-15T16:13:26.215Z,1.70
2022-09-15T16:15:54.084Z,3.70
2022-09-15T16:18:21.506Z,2.00
2022-09-15T16:20:48.182Z,2.60
2022-09-15T16:23:17.812Z,3.00
2022-09-15T16:26:11.145Z,3.20
2022-09-15T16:28:37.696Z,3.30
2022-09-15T16:31:09.799Z,3.70
2022-09-15T16:33:38.258Z,3.00
2022-09-15T16:36:17.704Z,3.00
2022-09-15T16:38:45.053Z,2.80
2022-09-15T16:41:19.874Z,2.60
2022-09-15T16:43:47.452Z,1.90
2022-09-15T16:46:14.366Z,2.50
2022-09-15T16:48:42.831Z,3.10
2022-09-15T16:51:25.257Z,2.70
2022-09-15T16:53:55.248Z,2.50
2022-09-15T16:56:22.262Z,3.00
2022-09-15T16:58:49.024Z,2.50
2022-09-15T17:01:20.808Z,3.70
2022-09-15T17:03:47.887Z,3.20
2022-09-15T17:06:17.941Z,2.10
2022-09-15T17:08:44.570Z,3.40
2022-09-15T17:11:17.400Z,4.50
2022-09-15T17:13:44.457Z,2.50
2022-09-15T17:16:13.806Z,3.60
2022-09-15T17:18:40.763Z,3.00
2022-09-15T17:21:09.734Z,2.70
2022-09-15T17:23:39.396Z,2.60
2022-09-15T17:26:20.357Z,3.10
2022-09-15T17:28:47.422Z,2.50
2022-09-15T17:31:17.417Z,4.30
2022-09-15T17:33:44.219Z,3.40
2022-09-15T17:36:11.536Z,2.70
2022-09-15T17:38:38.283Z,4.60
2022-09-15T17:41:16.627Z,3.10
2022-09-15T17:43:43.869Z,2.20
2022-09-15T17:46:11.079Z,3.20
2022-09-15T17:48:39.007Z,2.20
2022-09-15T17:51:14.202Z,3.20
2022-09-15T17:53:40.779Z,2.40
2022-09-15T17:56:07.727Z,1.90
2022-09-15T17:58:34.655Z,1.00
2022-09-15T18:01:01.343Z,2.30
2022-09-15T18:03:34.770Z,1.50
2022-09-15T18:06:09.847Z,1.60
2022-09-15T18:08:37.052Z,1.80
2022-09-15T18:11:06.325Z,1.30
2022-09-15T18:13:34.042Z,2.40
2022-09-15T18:16:07.972Z,1.90
2022-09-15T18:18:34.707Z,2.50
2022-09-15T18:21:02.001Z,1.10
2022-09-15T18:23:29.501Z,3.30
2022-09-15T18:25:56.567Z,2.10
2022-09-15T18:28:23.359Z,2.90
2022-09-15T18:30:50.607Z,3.20
2022-09-15T18:33:20.312Z,4.20
2022-09-15T18:35:48.281Z,4.40
2022-09-15T18:38:15.586Z,2.70
2022-09-15T18:40:47.491Z,2.80
2022-09-15T18:43:14.132Z,3.50
2022-09-15T18:45:42.543Z,2.60
2022-09-15T18:48:12.644Z,2.90
2022-09-15T18:50:40.997Z,2.30
2022-09-15T18:53:07.962Z,2.40
2022-09-15T18:55:34.833Z,2.80
2022-09-15T18:58:02.762Z,1.60
2022-09-15T19:00:30.044Z,2.70
2022-09-15T19:03:00.723Z,2.40
2022-09-15T19:05:29.320Z,2.50
2022-09-15T19:07:56.000Z,2.50
2022-09-15T19:10:24.364Z,2.80
2022-09-15T19:12:51.231Z,2.80
2022-09-15T19:15:18.268Z,3.60
2022-09-15T19:17:45.107Z,3.00
2022-09-15T19:20:14.174Z,3.20
2022-09-15T19:22:42.050Z,2.90
2022-09-15T19:25:10.907Z,2.90
2022-09-15T19:27:38.847Z,3.30
2022-09-15T19:30:06.494Z,3.30
2022-09-15T19:32:33.835Z,3.30
2022-09-15T19:35:00.736Z,1.80
2022-09-15T19:37:27.713Z,3.00
2022-09-15T19:39:54.812Z,2.30
2022-09-15T19:42:21.916Z,4.00
2022-09-15T19:44:49.639Z,2.90
2022-09-15T19:47:16.379Z,1.90
2022-09-15T19:49:43.703Z,3.70
2022-09-15T19:52:11.746Z,2.30
2022-09-15T19:54:38.720Z,3.00
2022-09-15T19:57:05.864Z,4.20
2022-09-15T19:59:32.689Z,3.60
2022-09-15T20:02:00.738Z,3.50
2022-09-15T20:04:28.396Z,4.90
2022-09-15T20:06:55.083Z,2.60
2022-09-15T20:09:21.838Z,4.00
2022-09-15T20:11:48.713Z,3.60
2022-09-15T20:14:15.802Z,3.10
2022-09-15T20:16:42.644Z,2.90
2022-09-15T20:19:09.643Z,3.90
2022-09-15T20:21:53.013Z,2.60
2022-09-15T20:24:21.234Z,3.70
2022-09-15T20:26:48.638Z,3.30
2022-09-15T20:29:15.843Z,2.30
2022-09-15T20:31:42.804Z,2.40
2022-09-15T20:34:09.517Z,3.60
2022-09-15T20:36:38.748Z,5.00
2022-09-15T20:39:13.105Z,4.40
2022-09-15T20:41:41.130Z,4.80
2022-09-15T20:44:11.333Z,3.30
2022-09-15T20:46:38.296Z,2.60
2022-09-15T20:49:05.711Z,5.80
2022-09-15T20:51:33.756Z,3.90
2022-09-15T20:54:03.846Z,2.60
2022-09-15T20:56:32.470Z,3.30
2022-09-15T20:59:00.478Z,3.40
2022-09-15T21:01:38.093Z,3.20
2022-09-15T21:04:06.979Z,3.60
2022-09-15T21:06:34.764Z,2.90
2022-09-15T21:09:01.616Z,4.00
2022-09-15T21:11:29.064Z,3.10
2022-09-15T21:13:56.505Z,4.00
2022-09-15T21:16:26.285Z,3.20
2022-09-15T21:18:53.628Z,2.70
2022-09-15T21:21:25.822Z,3.00
2022-09-15T21:23:58.761Z,2.40
2022-09-15T21:26:28.030Z,2.40
2022-09-15T21:28:56.270Z,2.90
2022-09-15T21:31:28.317Z,4.50
2022-09-15T21:33:55.677Z,3.60
2022-09-15T21:36:30.646Z,5.50
2022-09-15T21:38:58.858Z,3.00
2022-09-15T21:41:28.998Z,3.40
2022-09-15T21:43:58.050Z,3.30
2022-09-15T21:46:26.966Z,4.90
2022-09-15T21:48:55.501Z,4.10
2022-09-15T21:51:24.895Z,4.10
2022-09-15T21:53:53.572Z,2.30
2022-09-15T21:56:21.243Z,3.30
2022-09-15T21:58:48.680Z,3.80
2022-09-15T22:01:32.252Z,4.40
2022-09-15T22:04:01.167Z,4.80
2022-09-15T22:06:33.556Z,2.20
2022-09-15T22:09:02.079Z,4.50
2022-09-15T22:11:29.251Z,3.00
2022-09-15T22:13:56.305Z,1.80
2022-09-15T22:16:25.002Z,4.90
2022-09-15T22:18:52.077Z,4.90
2022-09-15T22:21:23.705Z,2.00
2022-09-15T22:23:51.830Z,3.60
2022-09-15T22:26:21.489Z,3.20
2022-09-15T22:28:48.425Z,2.60
2022-09-15T22:31:16.618Z,3.00
2022-09-15T22:33:43.444Z,3.20
2022-09-15T22:36:11.292Z,2.70
2022-09-15T22:38:38.676Z,1.90
2022-09-15T22:41:15.556Z,4.60
2022-09-15T22:43:43.947Z,2.50
2022-09-15T22:46:11.498Z,3.00
2022-09-15T22:48:43.339Z,3.40
2022-09-15T22:51:11.065Z,3.60
2022-09-15T22:53:38.201Z,5.60
2022-09-15T22:56:09.902Z,4.30
2022-09-15T22:58:37.276Z,3.80
2022-09-15T23:01:09.986Z,2.60
2022-09-15T23:03:37.311Z,5.60
2022-09-15T23:06:07.845Z,3.80
2022-09-15T23:08:35.404Z,3.30
2022-09-15T23:11:22.163Z,3.50
2022-09-15T23:13:49.442Z,3.90
2022-09-15T23:16:17.170Z,4.40
2022-09-15T23:18:44.896Z,3.30
2022-09-15T23:21:13.002Z,3.70
2022-09-15T23:23:41.164Z,3.50
2022-09-15T23:26:10.180Z,4.20
2022-09-15T23:28:38.933Z,2.30
2022-09-15T23:31:11.828Z,2.20
2022-09-15T23:33:38.930Z,2.30
2022-09-15T23:36:11.484Z,2.90
2022-09-15T23:38:40.150Z,2.20
2022-09-15T23:41:07.862Z,3.50
2022-09-15T23:43:35.360Z,2.40
2022-09-15T23:46:05.682Z,3.40
2022-09-15T23:48:32.768Z,3.80
2022-09-15T23:50:59.962Z,3.60
2022-09-15T23:53:27.100Z,4.10
2022-09-15T23:55:54.103Z,6.00
2022-09-15T23:58:21.128Z,3.00
